createdAt,value
2019-03-24T00:00:46.000Z,99.90
2019-03-24T00:03:16.833Z,99.90
2019-03-24T00:05:47.443Z,99.90
2019-03-24T00:08:18.124Z,99.90
2019-03-24T00:10:48.787Z,99.90
2019-03-24T00:13:19.599Z,99.90
2019-03-24T00:15:50.277Z,99.90
2019-03-24T00:18:21.237Z,99.90
2019-03-24T00:20:52.386Z,99.90
2019-03-24T00:23:22.998Z,99.90
2019-03-24T00:25:53.739Z,99.90
2019-03-24T00:28:24.449Z,99.90
2019-03-24T00:30:55.125Z,99.90
2019-03-24T00:33:25.791Z,99.90
2019-03-24T00:35:56.669Z,99.90
2019-03-24T00:38:27.340Z,99.90
2019-03-24T00:40:57.996Z,99.90
2019-03-24T00:43:28.681Z,99.90
2019-03-24T00:45:59.342Z,99.90
2019-03-24T00:48:31.688Z,99.90
2019-03-24T00:51:02.255Z,99.90
2019-03-24T00:53:32.874Z,99.90
2019-03-24T00:56:03.532Z,99.90
2019-03-24T00:58:34.128Z,99.90
2019-03-24T01:01:04.934Z,99.90
2019-03-24T01:03:35.598Z,99.90
2019-03-24T01:06:06.508Z,99.90
2019-03-24T01:08:37.199Z,99.90
2019-03-24T01:11:07.860Z,99.90
2019-03-24T01:13:38.650Z,99.90
2019-03-24T01:16:09.223Z,99.90
2019-03-24T01:18:40.014Z,99.90
2019-03-24T01:21:10.694Z,99.90
2019-03-24T01:23:41.519Z,99.90
2019-03-24T01:26:12.192Z,99.90
2019-03-24T01:28:42.923Z,99.90
2019-03-24T01:31:13.554Z,99.90
2019-03-24T01:33:44.198Z,99.90
2019-03-24T01:36:14.825Z,99.90
2019-03-24T01:38:45.490Z,99.90
2019-03-24T01:41:16.477Z,99.90
2019-03-24T01:43:47.203Z,99.90
2019-03-24T01:46:17.971Z,99.90
2019-03-24T01:48:48.803Z,99.90
2019-03-24T01:51:19.440Z,99.90
2019-03-24T01:53:50.068Z,99.90
2019-03-24T01:56:20.675Z,99.90
2019-03-24T01:58:51.310Z,99.90
2019-03-24T02:01:21.919Z,99.90
2019-03-24T02:03:52.570Z,99.90
2019-03-24T02:06:23.140Z,99.90
2019-03-24T02:08:53.835Z,99.90
2019-03-24T02:11:26.236Z,99.90
2019-03-24T02:13:57.243Z,99.90
2019-03-24T02:16:27.896Z,99.90
2019-03-24T02:18:59.411Z,99.90
2019-03-24T02:21:31.605Z,99.90
2019-03-24T02:24:02.430Z,99.90
2019-03-24T02:26:33.267Z,99.90
2019-03-24T02:29:04.088Z,99.90
2019-03-24T02:31:34.761Z,99.90
2019-03-24T02:34:05.510Z,99.90
2019-03-24T02:36:36.305Z,99.90
2019-03-24T02:39:08.431Z,99.90
2019-03-24T02:41:39.117Z,99.90
2019-03-24T02:44:11.177Z,99.90
2019-03-24T02:46:41.868Z,99.90
2019-03-24T02:49:12.587Z,99.90
2019-03-24T02:51:43.361Z,99.90
2019-03-24T02:54:14.004Z,99.90
2019-03-24T02:56:44.713Z,99.90
2019-03-24T02:59:15.686Z,99.90
2019-03-24T03:01:49.163Z,99.90
2019-03-24T03:04:20.193Z,99.90
2019-03-24T03:06:50.796Z,99.90
2019-03-24T03:09:21.838Z,99.90
2019-03-24T03:11:52.500Z,99.90
2019-03-24T03:14:23.146Z,99.90
2019-03-24T03:16:53.791Z,99.90
2019-03-24T03:19:25.673Z,99.90
2019-03-24T03:21:56.249Z,99.90
2019-03-24T03:24:26.859Z,99.90
2019-03-24T03:26:57.468Z,99.90
2019-03-24T03:29:29.684Z,99.90
2019-03-24T03:32:00.257Z,99.90
2019-03-24T03:34:31.003Z,99.90
2019-03-24T03:37:01.678Z,99.90
2019-03-24T03:39:32.322Z,99.90
2019-03-24T03:42:03.004Z,99.90
2019-03-24T03:44:33.618Z,99.90
2019-03-24T03:47:06.085Z,99.90
2019-03-24T03:49:36.860Z,99.90
2019-03-24T03:52:08.064Z,99.90
2019-03-24T03:54:38.770Z,99.90
2019-03-24T03:57:09.424Z,99.90
2019-03-24T03:59:40.046Z,99.90
2019-03-24T04:02:10.757Z,99.90
2019-03-24T04:04:41.407Z,99.90
2019-03-24T04:07:12.080Z,99.90
2019-03-24T04:09:42.753Z,99.90
2019-03-24T04:12:13.390Z,99.90
2019-03-24T04:14:44.107Z,99.90
2019-03-24T04:17:14.703Z,99.90
2019-03-24T04:19:45.317Z,99.90
2019-03-24T04:22:16.425Z,99.90
2019-03-24T04:24:47.035Z,99.90
2019-03-24T04:27:17.644Z,99.90
2019-03-24T04:29:48.314Z,99.90
2019-03-24T04:32:19.662Z,99.90
2019-03-24T04:34:50.267Z,99.90
2019-03-24T04:37:21.180Z,99.90
2019-03-24T04:40:02.753Z,99.90
2019-03-24T04:42:33.496Z,99.90
2019-03-24T04:45:04.609Z,99.90
2019-03-24T04:47:35.214Z,99.90
2019-03-24T04:50:07.020Z,99.90
2019-03-24T04:52:37.823Z,99.90
2019-03-24T04:55:09.066Z,99.90
2019-03-24T04:57:39.865Z,99.90
2019-03-24T05:00:11.258Z,99.90
2019-03-24T05:02:42.113Z,99.90
2019-03-24T05:05:13.009Z,99.90
2019-03-24T05:07:43.784Z,99.90
2019-03-24T05:10:26.724Z,99.90
2019-03-24T05:12:57.478Z,99.90
2019-03-24T05:15:28.134Z,99.90
2019-03-24T05:17:58.737Z,99.90
2019-03-24T05:20:29.778Z,99.90
2019-03-24T05:23:00.439Z,99.90
2019-03-24T05:25:33.821Z,99.90
2019-03-24T05:28:04.794Z,99.90
2019-03-24T05:30:35.431Z,99.90
2019-03-24T05:33:06.009Z,99.90
2019-03-24T05:35:36.613Z,99.90
2019-03-24T05:38:07.446Z,99.90
2019-03-24T05:40:38.148Z,99.90
2019-03-24T05:43:09.159Z,99.90
2019-03-24T05:45:39.776Z,99.90
2019-03-24T05:48:10.387Z,99.90
2019-03-24T05:50:41.021Z,99.90
2019-03-24T05:53:11.652Z,99.90
2019-03-24T05:55:42.301Z,99.90
2019-03-24T05:58:12.934Z,99.90
2019-03-24T06:00:43.679Z,99.90
2019-03-24T06:03:14.287Z,99.90
2019-03-24T06:05:45.216Z,99.90
2019-03-24T06:08:15.814Z,99.90
2019-03-24T06:10:46.574Z,99.90
2019-03-24T06:13:17.237Z,99.90
2019-03-24T06:15:47.919Z,99.90
2019-03-24T06:18:18.537Z,99.90
2019-03-24T06:20:49.302Z,99.90
2019-03-24T06:23:19.912Z,99.90
2019-03-24T06:25:50.987Z,99.90
2019-03-24T06:28:22.125Z,99.90
2019-03-24T06:30:53.024Z,99.90
2019-03-24T06:33:23.631Z,99.90
2019-03-24T06:35:54.361Z,99.90
2019-03-24T06:38:25.056Z,99.90
2019-03-24T06:40:55.714Z,99.90
2019-03-24T06:43:26.367Z,99.90
2019-03-24T06:45:57.006Z,99.90
2019-03-24T06:48:27.731Z,99.90
2019-03-24T06:50:58.612Z,99.90
2019-03-24T06:53:29.243Z,99.90
2019-03-24T06:55:59.966Z,99.90
2019-03-24T06:58:30.595Z,99.90
2019-03-24T07:01:01.403Z,99.90
2019-03-24T07:03:33.793Z,99.90
2019-03-24T07:06:04.593Z,99.90
2019-03-24T07:08:35.190Z,99.90
2019-03-24T07:11:13.226Z,99.90
2019-03-24T07:13:38.216Z,99.90
2019-03-24T07:16:08.901Z,99.90
2019-03-24T07:18:39.469Z,99.90
2019-03-24T07:21:28.179Z,99.90
2019-03-24T07:24:00.523Z,99.90
2019-03-24T07:29:15.461Z,99.90
2019-03-24T07:31:46.104Z,99.90
2019-03-24T07:37:06.551Z,99.90
2019-03-24T07:39:37.246Z,99.90
2019-03-24T07:42:08.157Z,99.90
2019-03-24T07:44:38.868Z,99.90
2019-03-24T07:47:14.033Z,99.90
2019-03-24T07:49:44.799Z,99.90
2019-03-24T07:52:15.523Z,99.90
2019-03-24T07:54:46.152Z,99.90
2019-03-24T07:57:16.819Z,99.90
2019-03-24T07:59:47.528Z,99.90
2019-03-24T08:02:18.287Z,99.90
2019-03-24T08:04:48.902Z,99.90
2019-03-24T08:07:19.723Z,99.90
2019-03-24T08:09:50.307Z,99.90
2019-03-24T08:12:20.906Z,99.90
2019-03-24T08:14:51.575Z,99.90
2019-03-24T08:17:22.603Z,99.90
2019-03-24T08:19:53.213Z,99.90
2019-03-24T08:22:24.192Z,99.90
2019-03-24T08:24:54.753Z,99.90
2019-03-24T08:27:25.485Z,99.90
2019-03-24T08:29:56.223Z,99.90
2019-03-24T08:32:26.868Z,99.90
2019-03-24T08:34:57.553Z,99.90
2019-03-24T08:37:28.188Z,99.90
2019-03-24T08:39:58.821Z,99.90
2019-03-24T08:42:29.499Z,99.90
2019-03-24T08:45:00.551Z,99.90
2019-03-24T08:47:31.235Z,99.90
2019-03-24T08:50:01.843Z,99.90
2019-03-24T08:52:32.465Z,99.90
2019-03-24T08:55:03.050Z,99.90
2019-03-24T08:57:33.740Z,99.90
2019-03-24T09:00:04.663Z,99.90
2019-03-24T09:02:35.634Z,99.90
2019-03-24T09:05:06.336Z,99.90
2019-03-24T09:07:37.067Z,99.90
2019-03-24T09:10:08.044Z,99.90
2019-03-24T09:12:38.692Z,99.90
2019-03-24T09:15:09.684Z,99.90
2019-03-24T09:17:41.368Z,99.90
2019-03-24T09:20:12.597Z,99.90
2019-03-24T09:22:43.178Z,99.90
2019-03-24T09:25:14.195Z,99.90
2019-03-24T09:27:44.834Z,99.90
2019-03-24T09:30:29.613Z,99.90
2019-03-24T09:33:00.449Z,99.90
2019-03-24T09:35:31.218Z,99.90
2019-03-24T09:38:01.923Z,99.90
2019-03-24T09:40:33.580Z,99.90
2019-03-24T09:43:05.294Z,99.90
2019-03-24T09:45:35.967Z,99.90
2019-03-24T09:48:06.825Z,99.90
2019-03-24T09:50:37.407Z,99.90
2019-03-24T09:53:08.133Z,99.90
2019-03-24T09:55:38.927Z,99.90
2019-03-24T09:58:09.910Z,99.90
2019-03-24T10:00:40.482Z,99.90
2019-03-24T10:03:11.295Z,99.90
2019-03-24T10:05:41.981Z,99.90
2019-03-24T10:08:12.654Z,99.90
2019-03-24T10:10:44.640Z,99.90
2019-03-24T10:13:15.374Z,99.90
2019-03-24T10:15:46.425Z,99.90
2019-03-24T10:18:20.687Z,99.90
2019-03-24T10:20:56.803Z,99.90
2019-03-24T10:23:27.438Z,99.90
2019-03-24T10:25:58.038Z,99.90
2019-03-24T10:28:28.653Z,99.90
2019-03-24T10:30:59.304Z,99.90
2019-03-24T10:33:31.582Z,99.90
2019-03-24T10:36:02.223Z,99.90
2019-03-24T10:38:33.201Z,99.90
2019-03-24T10:41:03.789Z,99.90
2019-03-24T10:43:34.412Z,99.90
2019-03-24T10:46:04.996Z,99.90
2019-03-24T10:48:35.607Z,99.90
2019-03-24T10:51:06.208Z,99.90
2019-03-24T10:53:36.951Z,99.90
2019-03-24T10:56:07.575Z,99.90
2019-03-24T10:58:38.261Z,99.90
2019-03-24T11:01:09.259Z,99.90
2019-03-24T11:03:39.928Z,99.90
2019-03-24T11:06:10.593Z,99.90
2019-03-24T11:08:41.258Z,99.90
2019-03-24T11:11:11.854Z,99.90
2019-03-24T11:13:42.488Z,99.90
2019-03-24T11:16:13.245Z,99.90
2019-03-24T11:18:44.009Z,99.90
2019-03-24T11:21:14.668Z,99.90
2019-03-24T11:23:46.088Z,99.90
2019-03-24T11:26:16.879Z,99.90
2019-03-24T11:28:47.611Z,99.90
2019-03-24T11:31:18.265Z,99.90
2019-03-24T11:33:51.687Z,99.90
2019-03-24T11:36:22.404Z,99.90
2019-03-24T11:38:53.177Z,99.90
2019-03-24T11:41:23.779Z,99.90
2019-03-24T11:43:54.413Z,99.50
2019-03-24T11:46:25.076Z,99.90
2019-03-24T11:48:55.713Z,99.90
2019-03-24T11:51:26.358Z,99.90
2019-03-24T11:53:57.054Z,99.90
2019-03-24T11:56:27.732Z,99.90
2019-03-24T11:58:58.515Z,99.60
2019-03-24T12:01:37.959Z,99.90
2019-03-24T12:04:01.678Z,99.90
2019-03-24T12:06:32.362Z,99.90
2019-03-24T12:09:03.375Z,97.20
2019-03-24T12:11:34.008Z,99.90
2019-03-24T12:14:04.837Z,99.90
2019-03-24T12:16:35.515Z,99.90
2019-03-24T12:19:06.301Z,99.90
2019-03-24T12:21:36.984Z,99.90
2019-03-24T12:24:08.743Z,99.90
2019-03-24T12:26:39.346Z,99.50
2019-03-24T12:29:10.070Z,99.90
2019-03-24T12:31:40.667Z,99.90
2019-03-24T12:34:11.378Z,99.90
2019-03-24T12:36:42.072Z,99.90
2019-03-24T12:39:12.858Z,99.90
2019-03-24T12:41:43.513Z,99.90
2019-03-24T12:44:14.150Z,99.70
2019-03-24T12:46:44.819Z,99.90
2019-03-24T12:49:15.749Z,99.90
2019-03-24T12:51:46.486Z,99.60
2019-03-24T12:54:17.215Z,99.10
2019-03-24T12:56:50.564Z,99.90
2019-03-24T12:59:21.340Z,98.40
2019-03-24T13:01:52.936Z,99.30
2019-03-24T13:04:24.128Z,99.30
2019-03-24T13:06:55.028Z,98.30
2019-03-24T13:09:25.849Z,98.70
2019-03-24T13:11:56.474Z,99.10
2019-03-24T13:14:27.166Z,99.90
2019-03-24T13:16:57.842Z,98.90
2019-03-24T13:19:28.597Z,99.60
2019-03-24T13:21:59.253Z,97.80
2019-03-24T13:24:29.938Z,97.00
2019-03-24T13:27:00.653Z,97.00
2019-03-24T13:29:31.342Z,97.10
2019-03-24T13:32:02.011Z,97.00
2019-03-24T13:34:32.648Z,97.30
2019-03-24T13:37:05.114Z,96.80
2019-03-24T13:39:35.789Z,98.00
2019-03-24T13:42:06.336Z,97.40
2019-03-24T13:44:36.935Z,96.90
2019-03-24T13:47:08.473Z,97.50
2019-03-24T13:49:39.196Z,96.60
2019-03-24T13:52:09.822Z,96.50
2019-03-24T13:54:40.590Z,95.00
2019-03-24T13:57:11.193Z,94.60
2019-03-24T13:59:41.962Z,94.20
2019-03-24T14:02:12.666Z,91.00
2019-03-24T14:04:43.347Z,91.60
2019-03-24T14:07:13.945Z,93.70
2019-03-24T14:09:44.574Z,93.70
2019-03-24T14:12:15.249Z,95.10
2019-03-24T14:14:45.891Z,95.40
2019-03-24T14:17:16.539Z,95.30
2019-03-24T14:19:47.276Z,95.80
2019-03-24T14:22:18.166Z,95.30
2019-03-24T14:24:48.891Z,95.10
2019-03-24T14:27:19.476Z,94.60
2019-03-24T14:29:50.091Z,94.20
2019-03-24T14:32:20.753Z,93.90
2019-03-24T14:34:51.439Z,94.40
2019-03-24T14:37:22.083Z,95.10
2019-03-24T14:39:52.697Z,94.20
2019-03-24T14:42:23.299Z,91.40
2019-03-24T14:44:54.059Z,91.20
2019-03-24T14:47:24.644Z,92.60
2019-03-24T14:49:55.334Z,91.90
2019-03-24T14:52:26.013Z,92.10
2019-03-24T14:54:56.915Z,93.10
2019-03-24T14:57:27.878Z,94.30
2019-03-24T14:59:58.519Z,94.80
2019-03-24T15:02:29.153Z,94.60
2019-03-24T15:04:59.823Z,93.70
2019-03-24T15:07:30.525Z,94.70
2019-03-24T15:10:01.202Z,93.20
2019-03-24T15:12:31.774Z,93.20
2019-03-24T15:15:02.515Z,93.00
2019-03-24T15:17:33.563Z,92.10
2019-03-24T15:20:04.461Z,93.20
2019-03-24T15:22:35.107Z,93.40
2019-03-24T15:25:06.092Z,93.50
2019-03-24T15:27:36.669Z,93.20
2019-03-24T15:30:07.854Z,93.50
2019-03-24T15:32:38.471Z,92.60
2019-03-24T15:35:09.267Z,93.10
2019-03-24T15:37:39.888Z,92.00
2019-03-24T15:40:10.863Z,92.20
2019-03-24T15:42:41.514Z,92.20
2019-03-24T15:45:12.450Z,92.80
2019-03-24T15:47:43.038Z,92.00
2019-03-24T15:50:13.752Z,92.30
2019-03-24T15:52:44.413Z,92.40
2019-03-24T15:55:15.120Z,91.50
2019-03-24T15:57:45.865Z,90.60
2019-03-24T16:00:19.203Z,91.00
2019-03-24T16:02:49.944Z,91.40
2019-03-24T16:05:20.725Z,92.30
2019-03-24T16:07:51.482Z,91.60
2019-03-24T16:10:22.194Z,91.90
2019-03-24T16:12:52.859Z,91.90
2019-03-24T16:15:23.508Z,91.20
2019-03-24T16:17:54.087Z,92.20
2019-03-24T16:20:24.856Z,92.30
2019-03-24T16:22:55.426Z,90.00
2019-03-24T16:25:26.116Z,89.20
2019-03-24T16:27:56.784Z,89.20
2019-03-24T16:30:27.447Z,90.20
2019-03-24T16:32:58.049Z,90.30
2019-03-24T16:35:28.666Z,90.30
2019-03-24T16:37:59.271Z,90.30
2019-03-24T16:40:29.918Z,90.40
2019-03-24T16:43:00.681Z,90.30
2019-03-24T16:45:31.404Z,91.10
2019-03-24T16:48:02.014Z,90.50
2019-03-24T16:50:32.867Z,90.40
2019-03-24T16:53:03.557Z,90.10
2019-03-24T16:55:34.321Z,89.50
2019-03-24T16:58:04.991Z,88.90
2019-03-24T17:00:35.586Z,89.20
2019-03-24T17:03:06.195Z,90.20
2019-03-24T17:05:36.904Z,89.70
2019-03-24T17:08:07.539Z,89.70
2019-03-24T17:10:38.175Z,90.50
2019-03-24T17:13:08.800Z,91.20
2019-03-24T17:15:40.497Z,91.50
2019-03-24T17:18:11.079Z,91.20
2019-03-24T17:20:41.745Z,92.00
2019-03-24T17:23:12.386Z,92.30
2019-03-24T17:25:43.029Z,93.30
2019-03-24T17:28:13.620Z,94.10
2019-03-24T17:30:44.412Z,94.60
2019-03-24T17:33:17.076Z,94.70
2019-03-24T17:35:47.561Z,95.40
2019-03-24T17:38:18.462Z,96.20
2019-03-24T17:40:49.111Z,97.00
2019-03-24T17:43:20.991Z,97.70
2019-03-24T17:45:51.792Z,98.30
2019-03-24T17:48:22.495Z,98.90
2019-03-24T17:50:53.401Z,99.90
2019-03-24T17:53:25.883Z,99.90
2019-03-24T17:55:56.607Z,99.90
2019-03-24T17:58:27.288Z,99.90
2019-03-24T18:00:58.416Z,99.90
2019-03-24T18:03:29.194Z,99.90
2019-03-24T18:05:59.814Z,99.90
2019-03-24T18:08:30.609Z,99.90
2019-03-24T18:11:01.374Z,99.90
2019-03-24T18:13:32.029Z,99.90
2019-03-24T18:16:02.635Z,99.90
2019-03-24T18:18:33.427Z,99.90
2019-03-24T18:21:04.042Z,99.90
2019-03-24T18:23:34.770Z,99.90
2019-03-24T18:26:05.590Z,99.90
2019-03-24T18:28:36.181Z,99.90
2019-03-24T18:31:06.810Z,99.90
2019-03-24T18:33:37.535Z,99.90
2019-03-24T18:36:08.187Z,99.90
2019-03-24T18:38:38.777Z,99.90
2019-03-24T18:41:09.564Z,99.90
2019-03-24T18:43:43.483Z,99.90
2019-03-24T18:46:14.086Z,99.90
2019-03-24T18:48:44.711Z,99.90
2019-03-24T18:51:15.613Z,99.90
2019-03-24T18:53:46.192Z,99.90
2019-03-24T18:56:17.157Z,99.90
2019-03-24T18:58:49.346Z,99.90
2019-03-24T19:01:20.243Z,99.90
2019-03-24T19:03:51.147Z,99.90
2019-03-24T19:06:24.862Z,99.90
2019-03-24T19:08:55.537Z,99.90
2019-03-24T19:11:26.520Z,99.90
2019-03-24T19:13:57.383Z,99.90
2019-03-24T19:16:30.375Z,99.90
2019-03-24T19:19:01.028Z,99.90
2019-03-24T19:21:31.878Z,99.90
2019-03-24T19:24:02.472Z,99.90
2019-03-24T19:26:33.268Z,99.90
2019-03-24T19:29:03.942Z,99.90
2019-03-24T19:31:35.481Z,99.90
2019-03-24T19:34:06.069Z,99.90
2019-03-24T19:36:37.154Z,99.90
2019-03-24T19:39:09.773Z,99.90
2019-03-24T19:41:40.453Z,99.90
2019-03-24T19:44:11.069Z,99.90
2019-03-24T19:46:41.808Z,99.90
2019-03-24T19:49:12.418Z,99.90
2019-03-24T19:51:43.030Z,99.90
2019-03-24T19:54:13.743Z,99.90
2019-03-24T19:56:44.819Z,99.90
2019-03-24T19:59:15.434Z,99.90
2019-03-24T20:01:46.222Z,99.90
2019-03-24T20:04:18.932Z,99.90
2019-03-24T20:06:49.690Z,99.90
2019-03-24T20:09:24.775Z,99.90
2019-03-24T20:11:56.989Z,99.90
2019-03-24T20:14:28.089Z,99.90
2019-03-24T20:16:58.872Z,99.90
2019-03-24T20:19:30.104Z,99.90
2019-03-24T20:22:00.808Z,99.90
2019-03-24T20:24:31.441Z,99.90
2019-03-24T20:27:02.173Z,99.90
2019-03-24T20:29:32.907Z,99.90
2019-03-24T20:32:03.994Z,99.90
2019-03-24T20:34:34.686Z,99.90
2019-03-24T20:37:05.399Z,99.90
2019-03-24T20:39:36.178Z,99.90
2019-03-24T20:42:09.798Z,99.90
2019-03-24T20:44:40.414Z,99.90
2019-03-24T20:47:11.490Z,99.90
2019-03-24T20:49:47.284Z,99.90
2019-03-24T20:52:17.971Z,99.90
2019-03-24T20:54:48.751Z,99.90
2019-03-24T20:57:21.246Z,99.90
2019-03-24T20:59:54.263Z,99.90
2019-03-24T21:02:25.032Z,99.90
2019-03-24T21:04:55.770Z,99.90
2019-03-24T21:07:26.460Z,99.90
2019-03-24T21:09:57.044Z,99.90
2019-03-24T21:12:27.729Z,99.90
2019-03-24T21:14:58.484Z,99.90
2019-03-24T21:17:31.271Z,99.90
2019-03-24T21:20:02.246Z,99.90
2019-03-24T21:22:32.954Z,99.90
2019-03-24T21:25:04.167Z,99.90
2019-03-24T21:27:34.782Z,99.90
2019-03-24T21:30:06.199Z,99.90
2019-03-24T21:32:36.818Z,99.90
2019-03-24T21:35:07.813Z,99.90
2019-03-24T21:37:38.574Z,99.90
2019-03-24T21:40:09.768Z,99.90
2019-03-24T21:42:40.445Z,99.90
2019-03-24T21:45:11.564Z,99.90
2019-03-24T21:47:42.316Z,99.90
2019-03-24T21:50:14.589Z,99.90
2019-03-24T21:52:48.304Z,99.90
2019-03-24T21:55:18.931Z,99.90
2019-03-24T21:57:57.525Z,99.90
2019-03-24T22:00:32.920Z,99.90
2019-03-24T22:03:03.946Z,99.90
2019-03-24T22:05:38.356Z,99.90
2019-03-24T22:08:09.042Z,99.90
2019-03-24T22:10:39.623Z,99.90
2019-03-24T22:13:10.270Z,99.90
2019-03-24T22:15:40.852Z,99.90
2019-03-24T22:18:11.467Z,99.90
2019-03-24T22:20:48.769Z,99.90
2019-03-24T22:23:14.397Z,99.90
2019-03-24T22:25:45.077Z,99.90
2019-03-24T22:28:15.766Z,99.90
2019-03-24T22:30:46.434Z,99.90
2019-03-24T22:33:17.067Z,99.90
2019-03-24T22:35:47.670Z,99.90
2019-03-24T22:38:18.534Z,99.90
2019-03-24T22:40:49.153Z,99.90
2019-03-24T22:43:19.807Z,99.90
2019-03-24T22:45:50.460Z,99.90
2019-03-24T22:48:21.244Z,99.90
2019-03-24T22:50:51.894Z,99.90
2019-03-24T22:53:22.946Z,99.90
2019-03-24T22:55:53.773Z,99.90
2019-03-24T22:58:24.449Z,99.90
2019-03-24T23:00:56.078Z,99.90
2019-03-24T23:03:26.831Z,99.90
2019-03-24T23:05:57.591Z,99.90
2019-03-24T23:08:28.234Z,99.90
2019-03-24T23:10:58.900Z,99.90
2019-03-24T23:13:29.602Z,99.90
2019-03-24T23:16:00.176Z,99.90
2019-03-24T23:18:30.923Z,99.90
2019-03-24T23:21:01.516Z,99.90
2019-03-24T23:23:32.186Z,99.90
2019-03-24T23:26:02.857Z,99.90
2019-03-24T23:28:36.580Z,99.90
2019-03-24T23:31:07.210Z,99.90
2019-03-24T23:33:39.002Z,99.90
2019-03-24T23:36:09.672Z,99.90
2019-03-24T23:38:40.322Z,99.90
2019-03-24T23:41:12.457Z,99.90
2019-03-24T23:43:43.153Z,99.90
2019-03-24T23:46:13.859Z,99.90
2019-03-24T23:48:44.519Z,99.90
2019-03-24T23:51:15.166Z,99.90
2019-03-24T23:53:45.914Z,99.90
2019-03-24T23:56:16.632Z,99.90
2019-03-24T23:58:47.339Z,99.90
